sensor_id;sensor_type;location;lat;lon;timestamp;P1;durP1;ratioP1;P2;durP2;ratioP2
51216;SDS011;37283;49.760;8.648;2023-02-28T00:00:50;3.33;;;2.10;;
51216;SDS011;37283;49.760;8.648;2023-02-28T00:03:17;4.90;;;2.30;;
51216;SDS011;37283;49.760;8.648;2023-02-28T00:05:44;3.33;;;2.10;;
51216;SDS011;37283;49.760;8.648;2023-02-28T00:08:10;4.55;;;2.40;;
51216;SDS011;37283;49.760;8.648;2023-02-28T00:10:36;4.28;;;2.42;;
51216;SDS011;37283;49.760;8.648;2023-02-28T00:13:04;4.30;;;2.30;;
51216;SDS011;37283;49.760;8.648;2023-02-28T00:15:32;3.00;;;2.10;;
51216;SDS011;37283;49.760;8.648;2023-02-28T00:17:59;4.28;;;2.17;;
51216;SDS011;37283;49.760;8.648;2023-02-28T00:20:25;4.07;;;2.30;;
51216;SDS011;37283;49.760;8.648;2023-02-28T00:22:53;5.82;;;2.22;;
51216;SDS011;37283;49.760;8.648;2023-02-28T00:25:21;4.35;;;2.35;;
51216;SDS011;37283;49.760;8.648;2023-02-28T00:27:49;3.00;;;2.10;;
51216;SDS011;37283;49.760;8.648;2023-02-28T00:30:17;2.95;;;2.13;;
51216;SDS011;37283;49.760;8.648;2023-02-28T00:32:44;5.03;;;2.33;;
51216;SDS011;37283;49.760;8.648;2023-02-28T00:35:11;3.80;;;2.00;;
51216;SDS011;37283;49.760;8.648;2023-02-28T00:37:40;4.00;;;2.20;;
51216;SDS011;37283;49.760;8.648;2023-02-28T00:40:07;5.18;;;2.33;;
51216;SDS011;37283;49.760;8.648;2023-02-28T00:42:35;3.72;;;2.15;;
51216;SDS011;37283;49.760;8.648;2023-02-28T00:45:02;4.97;;;2.67;;
51216;SDS011;37283;49.760;8.648;2023-02-28T00:47:32;5.50;;;2.53;;
51216;SDS011;37283;49.760;8.648;2023-02-28T00:49:59;3.58;;;2.33;;
51216;SDS011;37283;49.760;8.648;2023-02-28T00:52:27;3.95;;;2.63;;
51216;SDS011;37283;49.760;8.648;2023-02-28T00:54:54;4.32;;;2.70;;
51216;SDS011;37283;49.760;8.648;2023-02-28T00:57:20;4.18;;;2.53;;
51216;SDS011;37283;49.760;8.648;2023-02-28T00:59:47;4.07;;;2.67;;
51216;SDS011;37283;49.760;8.648;2023-02-28T01:02:14;5.93;;;2.80;;
51216;SDS011;37283;49.760;8.648;2023-02-28T01:04:40;3.83;;;2.30;;
51216;SDS011;37283;49.760;8.648;2023-02-28T01:07:08;5.47;;;2.60;;
51216;SDS011;37283;49.760;8.648;2023-02-28T01:09:35;3.58;;;2.58;;
51216;SDS011;37283;49.760;8.648;2023-02-28T01:12:01;4.38;;;2.78;;
51216;SDS011;37283;49.760;8.648;2023-02-28T01:14:28;3.88;;;2.42;;
51216;SDS011;37283;49.760;8.648;2023-02-28T01:16:55;4.35;;;2.90;;
51216;SDS011;37283;49.760;8.648;2023-02-28T01:19:24;4.65;;;2.35;;
51216;SDS011;37283;49.760;8.648;2023-02-28T01:21:50;4.03;;;2.45;;
51216;SDS011;37283;49.760;8.648;2023-02-28T01:24:17;3.95;;;2.55;;
51216;SDS011;37283;49.760;8.648;2023-02-28T01:26:43;3.90;;;2.65;;
51216;SDS011;37283;49.760;8.648;2023-02-28T01:29:10;4.30;;;2.35;;
51216;SDS011;37283;49.760;8.648;2023-02-28T01:31:37;4.65;;;2.63;;
51216;SDS011;37283;49.760;8.648;2023-02-28T01:34:03;3.10;;;2.00;;
51216;SDS011;37283;49.760;8.648;2023-02-28T01:36:30;3.85;;;2.60;;
51216;SDS011;37283;49.760;8.648;2023-02-28T01:38:56;5.55;;;2.70;;
51216;SDS011;37283;49.760;8.648;2023-02-28T01:41:27;5.45;;;2.60;;
51216;SDS011;37283;49.760;8.648;2023-02-28T01:44:07;3.50;;;2.30;;
51216;SDS011;37283;49.760;8.648;2023-02-28T01:46:54;2.80;;;2.20;;
51216;SDS011;37283;49.760;8.648;2023-02-28T01:49:21;4.40;;;2.53;;
51216;SDS011;37283;49.760;8.648;2023-02-28T01:51:54;6.45;;;2.70;;
51216;SDS011;37283;49.760;8.648;2023-02-28T01:56:56;5.05;;;2.13;;
51216;SDS011;37283;49.760;8.648;2023-02-28T01:59:33;3.60;;;2.17;;
51216;SDS011;37283;49.760;8.648;2023-02-28T02:02:02;5.97;;;2.80;;
51216;SDS011;37283;49.760;8.648;2023-02-28T02:04:32;4.57;;;2.50;;
51216;SDS011;37283;49.760;8.648;2023-02-28T02:07:03;3.83;;;2.55;;
51216;SDS011;37283;49.760;8.648;2023-02-28T02:09:30;3.47;;;2.40;;
51216;SDS011;37283;49.760;8.648;2023-02-28T02:11:57;2.90;;;2.30;;
51216;SDS011;37283;49.760;8.648;2023-02-28T02:17:21;4.55;;;2.55;;
51216;SDS011;37283;49.760;8.648;2023-02-28T02:37:02;4.28;;;2.00;;
51216;SDS011;37283;49.760;8.648;2023-02-28T02:42:21;5.40;;;2.33;;
51216;SDS011;37283;49.760;8.648;2023-02-28T02:44:59;5.10;;;2.42;;
51216;SDS011;37283;49.760;8.648;2023-02-28T02:47:29;4.10;;;2.42;;
51216;SDS011;37283;49.760;8.648;2023-02-28T02:49:58;3.42;;;2.40;;
51216;SDS011;37283;49.760;8.648;2023-02-28T02:52:40;3.33;;;2.13;;
51216;SDS011;37283;49.760;8.648;2023-02-28T02:55:12;4.47;;;2.55;;
51216;SDS011;37283;49.760;8.648;2023-02-28T02:57:45;5.45;;;2.60;;
51216;SDS011;37283;49.760;8.648;2023-02-28T03:00:13;3.60;;;2.47;;
51216;SDS011;37283;49.760;8.648;2023-02-28T03:02:42;3.47;;;2.20;;
51216;SDS011;37283;49.760;8.648;2023-02-28T03:05:24;5.23;;;2.30;;
51216;SDS011;37283;49.760;8.648;2023-02-28T03:07:54;3.75;;;2.42;;
51216;SDS011;37283;49.760;8.648;2023-02-28T03:13:08;6.93;;;2.55;;
51216;SDS011;37283;49.760;8.648;2023-02-28T03:15:46;4.72;;;2.80;;
51216;SDS011;37283;49.760;8.648;2023-02-28T03:18:49;3.88;;;2.67;;
51216;SDS011;37283;49.760;8.648;2023-02-28T03:21:23;4.45;;;2.30;;
51216;SDS011;37283;49.760;8.648;2023-02-28T03:26:34;3.40;;;2.38;;
51216;SDS011;37283;49.760;8.648;2023-02-28T03:29:13;4.65;;;2.53;;
51216;SDS011;37283;49.760;8.648;2023-02-28T03:31:44;3.85;;;2.67;;
51216;SDS011;37283;49.760;8.648;2023-02-28T03:34:34;4.88;;;3.00;;
51216;SDS011;37283;49.760;8.648;2023-02-28T03:37:07;2.88;;;2.33;;
51216;SDS011;37283;49.760;8.648;2023-02-28T03:39:39;4.45;;;2.60;;
51216;SDS011;37283;49.760;8.648;2023-02-28T03:42:09;3.70;;;2.47;;
51216;SDS011;37283;49.760;8.648;2023-02-28T03:45:00;4.40;;;2.55;;
51216;SDS011;37283;49.760;8.648;2023-02-28T03:50:47;5.72;;;2.50;;
51216;SDS011;37283;49.760;8.648;2023-02-28T03:53:35;4.60;;;2.80;;
51216;SDS011;37283;49.760;8.648;2023-02-28T03:56:14;4.05;;;2.40;;
51216;SDS011;37283;49.760;8.648;2023-02-28T04:04:03;3.22;;;2.30;;
51216;SDS011;37283;49.760;8.648;2023-02-28T04:06:32;3.75;;;2.80;;
51216;SDS011;37283;49.760;8.648;2023-02-28T04:08:59;4.87;;;2.60;;
51216;SDS011;37283;49.760;8.648;2023-02-28T04:14:05;4.40;;;2.50;;
51216;SDS011;37283;49.760;8.648;2023-02-28T04:16:32;4.68;;;2.72;;
51216;SDS011;37283;49.760;8.648;2023-02-28T04:19:04;5.28;;;2.88;;
51216;SDS011;37283;49.760;8.648;2023-02-28T04:21:37;3.72;;;2.72;;
51216;SDS011;37283;49.760;8.648;2023-02-28T04:24:08;6.28;;;2.65;;
51216;SDS011;37283;49.760;8.648;2023-02-28T04:26:41;5.00;;;2.40;;
51216;SDS011;37283;49.760;8.648;2023-02-28T04:29:10;3.55;;;2.45;;
51216;SDS011;37283;49.760;8.648;2023-02-28T04:31:38;4.35;;;2.85;;
51216;SDS011;37283;49.760;8.648;2023-02-28T04:34:05;4.35;;;2.70;;
51216;SDS011;37283;49.760;8.648;2023-02-28T04:36:32;3.78;;;2.50;;
51216;SDS011;37283;49.760;8.648;2023-02-28T04:38:59;6.20;;;3.15;;
51216;SDS011;37283;49.760;8.648;2023-02-28T04:41:25;4.35;;;3.00;;
51216;SDS011;37283;49.760;8.648;2023-02-28T04:43:56;4.07;;;2.78;;
51216;SDS011;37283;49.760;8.648;2023-02-28T04:46:22;6.38;;;2.80;;
51216;SDS011;37283;49.760;8.648;2023-02-28T04:48:49;4.22;;;2.50;;
51216;SDS011;37283;49.760;8.648;2023-02-28T04:51:16;4.47;;;2.85;;
51216;SDS011;37283;49.760;8.648;2023-02-28T04:53:44;5.22;;;2.60;;
51216;SDS011;37283;49.760;8.648;2023-02-28T04:56:12;6.75;;;2.90;;
51216;SDS011;37283;49.760;8.648;2023-02-28T04:58:39;4.90;;;2.78;;
51216;SDS011;37283;49.760;8.648;2023-02-28T05:01:14;4.32;;;2.78;;
51216;SDS011;37283;49.760;8.648;2023-02-28T05:03:43;3.83;;;2.75;;
51216;SDS011;37283;49.760;8.648;2023-02-28T05:06:11;3.50;;;2.72;;
51216;SDS011;37283;49.760;8.648;2023-02-28T05:08:38;4.95;;;2.92;;
51216;SDS011;37283;49.760;8.648;2023-02-28T05:11:06;4.10;;;3.20;;
51216;SDS011;37283;49.760;8.648;2023-02-28T05:13:46;4.10;;;2.75;;
51216;SDS011;37283;49.760;8.648;2023-02-28T05:16:13;3.55;;;2.72;;
51216;SDS011;37283;49.760;8.648;2023-02-28T05:18:40;3.90;;;2.90;;
51216;SDS011;37283;49.760;8.648;2023-02-28T05:21:17;5.50;;;2.80;;
51216;SDS011;37283;49.760;8.648;2023-02-28T05:23:50;6.32;;;3.10;;
51216;SDS011;37283;49.760;8.648;2023-02-28T05:26:18;4.57;;;3.08;;
51216;SDS011;37283;49.760;8.648;2023-02-28T05:28:45;4.18;;;2.90;;
51216;SDS011;37283;49.760;8.648;2023-02-28T05:31:12;4.32;;;2.83;;
51216;SDS011;37283;49.760;8.648;2023-02-28T05:33:39;4.72;;;3.33;;
51216;SDS011;37283;49.760;8.648;2023-02-28T05:36:06;4.90;;;3.33;;
51216;SDS011;37283;49.760;8.648;2023-02-28T05:38:33;7.10;;;3.58;;
51216;SDS011;37283;49.760;8.648;2023-02-28T05:41:06;5.22;;;2.85;;
51216;SDS011;37283;49.760;8.648;2023-02-28T05:43:36;5.88;;;4.60;;
51216;SDS011;37283;49.760;8.648;2023-02-28T05:46:07;9.15;;;7.00;;
51216;SDS011;37283;49.760;8.648;2023-02-28T05:48:36;13.68;;;9.75;;
51216;SDS011;37283;49.760;8.648;2023-02-28T05:51:04;21.60;;;13.60;;
51216;SDS011;37283;49.760;8.648;2023-02-28T05:53:31;17.48;;;11.65;;
51216;SDS011;37283;49.760;8.648;2023-02-28T05:55:59;19.30;;;13.30;;
51216;SDS011;37283;49.760;8.648;2023-02-28T05:58:26;9.77;;;7.88;;
51216;SDS011;37283;49.760;8.648;2023-02-28T06:01:00;6.47;;;4.30;;
51216;SDS011;37283;49.760;8.648;2023-02-28T06:03:37;7.78;;;4.55;;
51216;SDS011;37283;49.760;8.648;2023-02-28T06:06:04;5.43;;;4.75;;
51216;SDS011;37283;49.760;8.648;2023-02-28T06:08:31;7.03;;;3.92;;
51216;SDS011;37283;49.760;8.648;2023-02-28T06:10:58;6.25;;;3.53;;
51216;SDS011;37283;49.760;8.648;2023-02-28T06:13:24;4.55;;;3.22;;
51216;SDS011;37283;49.760;8.648;2023-02-28T06:15:51;6.82;;;3.45;;
51216;SDS011;37283;49.760;8.648;2023-02-28T06:18:18;6.13;;;3.40;;
51216;SDS011;37283;49.760;8.648;2023-02-28T06:20:44;4.22;;;3.03;;
51216;SDS011;37283;49.760;8.648;2023-02-28T06:23:21;5.50;;;2.90;;
51216;SDS011;37283;49.760;8.648;2023-02-28T06:25:47;4.57;;;3.50;;
51216;SDS011;37283;49.760;8.648;2023-02-28T06:28:15;4.03;;;3.08;;
51216;SDS011;37283;49.760;8.648;2023-02-28T06:30:42;6.00;;;3.65;;
51216;SDS011;37283;49.760;8.648;2023-02-28T06:33:11;6.30;;;3.42;;
51216;SDS011;37283;49.760;8.648;2023-02-28T06:35:38;5.28;;;3.15;;
51216;SDS011;37283;49.760;8.648;2023-02-28T06:38:05;5.30;;;3.30;;
51216;SDS011;37283;49.760;8.648;2023-02-28T06:40:31;4.85;;;3.40;;
51216;SDS011;37283;49.760;8.648;2023-02-28T06:45:27;4.75;;;3.20;;
51216;SDS011;37283;49.760;8.648;2023-02-28T06:47:54;6.05;;;3.10;;
51216;SDS011;37283;49.760;8.648;2023-02-28T06:50:20;4.78;;;3.20;;
51216;SDS011;37283;49.760;8.648;2023-02-28T06:52:47;5.30;;;3.50;;
51216;SDS011;37283;49.760;8.648;2023-02-28T06:55:13;6.22;;;3.15;;
51216;SDS011;37283;49.760;8.648;2023-02-28T06:57:40;5.40;;;3.00;;
51216;SDS011;37283;49.760;8.648;2023-02-28T07:00:07;4.43;;;2.88;;
51216;SDS011;37283;49.760;8.648;2023-02-28T07:02:35;4.30;;;3.03;;
51216;SDS011;37283;49.760;8.648;2023-02-28T07:05:02;4.25;;;3.25;;
51216;SDS011;37283;49.760;8.648;2023-02-28T07:07:29;4.32;;;3.38;;
51216;SDS011;37283;49.760;8.648;2023-02-28T07:09:55;3.83;;;3.15;;
51216;SDS011;37283;49.760;8.648;2023-02-28T07:12:22;5.88;;;3.30;;
51216;SDS011;37283;49.760;8.648;2023-02-28T07:14:49;5.63;;;3.72;;
51216;SDS011;37283;49.760;8.648;2023-02-28T07:17:15;14.30;;;8.27;;
51216;SDS011;37283;49.760;8.648;2023-02-28T07:19:42;15.73;;;9.45;;
51216;SDS011;37283;49.760;8.648;2023-02-28T07:22:08;9.85;;;6.70;;
51216;SDS011;37283;49.760;8.648;2023-02-28T07:24:34;10.70;;;7.10;;
51216;SDS011;37283;49.760;8.648;2023-02-28T07:27:01;6.32;;;4.72;;
51216;SDS011;37283;49.760;8.648;2023-02-28T07:29:27;6.47;;;4.65;;
51216;SDS011;37283;49.760;8.648;2023-02-28T07:31:54;7.10;;;4.97;;
51216;SDS011;37283;49.760;8.648;2023-02-28T07:34:21;5.88;;;3.88;;
51216;SDS011;37283;49.760;8.648;2023-02-28T07:36:48;8.80;;;5.55;;
51216;SDS011;37283;49.760;8.648;2023-02-28T07:39:15;11.73;;;7.45;;
51216;SDS011;37283;49.760;8.648;2023-02-28T07:41:41;12.15;;;8.10;;
51216;SDS011;37283;49.760;8.648;2023-02-28T07:44:10;13.98;;;6.60;;
51216;SDS011;37283;49.760;8.648;2023-02-28T07:46:37;8.45;;;5.40;;
51216;SDS011;37283;49.760;8.648;2023-02-28T07:49:04;22.23;;;12.05;;
51216;SDS011;37283;49.760;8.648;2023-02-28T07:51:31;5.15;;;3.42;;
51216;SDS011;37283;49.760;8.648;2023-02-28T07:53:58;14.85;;;7.10;;
51216;SDS011;37283;49.760;8.648;2023-02-28T07:56:25;5.15;;;3.13;;
51216;SDS011;37283;49.760;8.648;2023-02-28T07:58:51;39.65;;;18.83;;
51216;SDS011;37283;49.760;8.648;2023-02-28T08:01:18;27.70;;;12.88;;
51216;SDS011;37283;49.760;8.648;2023-02-28T08:03:45;11.85;;;6.63;;
51216;SDS011;37283;49.760;8.648;2023-02-28T08:06:19;6.10;;;3.72;;
51216;SDS011;37283;49.760;8.648;2023-02-28T08:08:47;6.65;;;3.47;;
51216;SDS011;37283;49.760;8.648;2023-02-28T08:11:14;6.88;;;3.97;;
51216;SDS011;37283;49.760;8.648;2023-02-28T08:13:42;6.00;;;4.15;;
51216;SDS011;37283;49.760;8.648;2023-02-28T08:16:10;4.43;;;3.20;;
51216;SDS011;37283;49.760;8.648;2023-02-28T08:18:37;5.97;;;3.47;;
51216;SDS011;37283;49.760;8.648;2023-02-28T08:21:07;6.25;;;3.60;;
51216;SDS011;37283;49.760;8.648;2023-02-28T08:23:34;6.05;;;4.60;;
51216;SDS011;37283;49.760;8.648;2023-02-28T08:26:01;10.05;;;5.65;;
51216;SDS011;37283;49.760;8.648;2023-02-28T08:28:28;5.78;;;3.45;;
51216;SDS011;37283;49.760;8.648;2023-02-28T08:30:55;6.20;;;4.47;;
51216;SDS011;37283;49.760;8.648;2023-02-28T08:33:22;9.23;;;4.30;;
51216;SDS011;37283;49.760;8.648;2023-02-28T08:35:51;10.82;;;7.35;;
51216;SDS011;37283;49.760;8.648;2023-02-28T08:38:19;43.00;;;19.98;;
51216;SDS011;37283;49.760;8.648;2023-02-28T08:40:45;29.65;;;14.82;;
51216;SDS011;37283;49.760;8.648;2023-02-28T08:43:12;9.85;;;4.00;;
51216;SDS011;37283;49.760;8.648;2023-02-28T08:45:38;11.95;;;7.28;;
51216;SDS011;37283;49.760;8.648;2023-02-28T08:48:05;7.90;;;5.28;;
51216;SDS011;37283;49.760;8.648;2023-02-28T08:50:31;9.93;;;4.47;;
51216;SDS011;37283;49.760;8.648;2023-02-28T08:52:57;8.35;;;3.70;;
51216;SDS011;37283;49.760;8.648;2023-02-28T08:55:24;6.38;;;4.88;;
51216;SDS011;37283;49.760;8.648;2023-02-28T08:57:51;8.25;;;3.63;;
51216;SDS011;37283;49.760;8.648;2023-02-28T09:00:18;8.57;;;5.15;;
51216;SDS011;37283;49.760;8.648;2023-02-28T09:02:45;5.45;;;3.90;;
51216;SDS011;37283;49.760;8.648;2023-02-28T09:05:12;8.90;;;4.70;;
51216;SDS011;37283;49.760;8.648;2023-02-28T09:07:38;9.52;;;4.68;;
51216;SDS011;37283;49.760;8.648;2023-02-28T09:10:05;7.05;;;4.50;;
51216;SDS011;37283;49.760;8.648;2023-02-28T09:12:32;6.53;;;4.13;;
51216;SDS011;37283;49.760;8.648;2023-02-28T09:15:00;7.18;;;5.13;;
51216;SDS011;37283;49.760;8.648;2023-02-28T09:17:27;8.32;;;4.32;;
51216;SDS011;37283;49.760;8.648;2023-02-28T09:19:56;6.85;;;4.50;;
51216;SDS011;37283;49.760;8.648;2023-02-28T09:22:23;5.57;;;4.50;;
51216;SDS011;37283;49.760;8.648;2023-02-28T09:24:50;7.80;;;4.35;;
51216;SDS011;37283;49.760;8.648;2023-02-28T09:27:16;10.07;;;5.45;;
51216;SDS011;37283;49.760;8.648;2023-02-28T09:29:43;7.18;;;5.10;;
51216;SDS011;37283;49.760;8.648;2023-02-28T09:32:09;6.90;;;4.78;;
51216;SDS011;37283;49.760;8.648;2023-02-28T09:34:36;7.20;;;5.15;;
51216;SDS011;37283;49.760;8.648;2023-02-28T09:37:03;7.82;;;4.80;;
51216;SDS011;37283;49.760;8.648;2023-02-28T09:39:30;6.30;;;4.35;;
51216;SDS011;37283;49.760;8.648;2023-02-28T09:41:57;6.63;;;4.20;;
51216;SDS011;37283;49.760;8.648;2023-02-28T09:44:29;6.70;;;4.45;;
51216;SDS011;37283;49.760;8.648;2023-02-28T09:47:01;6.90;;;4.95;;
51216;SDS011;37283;49.760;8.648;2023-02-28T09:49:38;8.52;;;5.47;;
51216;SDS011;37283;49.760;8.648;2023-02-28T09:52:09;8.50;;;5.43;;
51216;SDS011;37283;49.760;8.648;2023-02-28T09:54:37;7.55;;;5.00;;
51216;SDS011;37283;49.760;8.648;2023-02-28T09:57:06;8.70;;;4.88;;
51216;SDS011;37283;49.760;8.648;2023-02-28T10:05:23;7.15;;;4.57;;
51216;SDS011;37283;49.760;8.648;2023-02-28T10:10:44;19.05;;;5.57;;
51216;SDS011;37283;49.760;8.648;2023-02-28T10:13:35;10.88;;;4.68;;
51216;SDS011;37283;49.760;8.648;2023-02-28T10:19:13;6.40;;;4.72;;
51216;SDS011;37283;49.760;8.648;2023-02-28T10:21:45;6.43;;;4.32;;
51216;SDS011;37283;49.760;8.648;2023-02-28T10:24:23;6.68;;;5.22;;
51216;SDS011;37283;49.760;8.648;2023-02-28T10:26:59;6.68;;;4.53;;
51216;SDS011;37283;49.760;8.648;2023-02-28T10:29:28;8.15;;;4.60;;
51216;SDS011;37283;49.760;8.648;2023-02-28T10:31:58;10.75;;;4.47;;
51216;SDS011;37283;49.760;8.648;2023-02-28T10:34:27;9.52;;;4.75;;
51216;SDS011;37283;49.760;8.648;2023-02-28T10:36:54;6.97;;;4.50;;
51216;SDS011;37283;49.760;8.648;2023-02-28T10:39:34;7.95;;;4.85;;
51216;SDS011;37283;49.760;8.648;2023-02-28T10:42:05;7.43;;;4.78;;
51216;SDS011;37283;49.760;8.648;2023-02-28T10:44:47;7.57;;;4.35;;
51216;SDS011;37283;49.760;8.648;2023-02-28T10:47:15;9.82;;;4.82;;
51216;SDS011;37283;49.760;8.648;2023-02-28T10:49:47;8.40;;;3.90;;
51216;SDS011;37283;49.760;8.648;2023-02-28T10:52:15;7.40;;;4.85;;
51216;SDS011;37283;49.760;8.648;2023-02-28T10:57:49;9.63;;;5.07;;
51216;SDS011;37283;49.760;8.648;2023-02-28T11:00:19;6.20;;;4.57;;
51216;SDS011;37283;49.760;8.648;2023-02-28T11:02:47;6.72;;;5.07;;
51216;SDS011;37283;49.760;8.648;2023-02-28T11:05:25;6.65;;;4.65;;
51216;SDS011;37283;49.760;8.648;2023-02-28T11:07:52;7.45;;;5.28;;
51216;SDS011;37283;49.760;8.648;2023-02-28T11:10:21;9.57;;;5.60;;
51216;SDS011;37283;49.760;8.648;2023-02-28T11:12:50;6.18;;;4.88;;
51216;SDS011;37283;49.760;8.648;2023-02-28T11:15:22;7.10;;;4.72;;
51216;SDS011;37283;49.760;8.648;2023-02-28T11:18:19;6.97;;;5.18;;
51216;SDS011;37283;49.760;8.648;2023-02-28T11:20:56;11.40;;;5.72;;
51216;SDS011;37283;49.760;8.648;2023-02-28T11:23:25;7.25;;;4.85;;
51216;SDS011;37283;49.760;8.648;2023-02-28T11:36:16;8.43;;;5.22;;
51216;SDS011;37283;49.760;8.648;2023-02-28T11:38:46;7.32;;;4.93;;
51216;SDS011;37283;49.760;8.648;2023-02-28T11:46:49;7.60;;;5.28;;
51216;SDS011;37283;49.760;8.648;2023-02-28T11:54:50;6.75;;;4.90;;
51216;SDS011;37283;49.760;8.648;2023-02-28T11:57:44;8.18;;;5.22;;
51216;SDS011;37283;49.760;8.648;2023-02-28T12:05:43;8.45;;;5.55;;
51216;SDS011;37283;49.760;8.648;2023-02-28T12:08:18;10.02;;;5.32;;
51216;SDS011;37283;49.760;8.648;2023-02-28T12:10:57;9.18;;;5.35;;
51216;SDS011;37283;49.760;8.648;2023-02-28T12:13:52;7.72;;;5.13;;
51216;SDS011;37283;49.760;8.648;2023-02-28T12:27:35;7.93;;;5.95;;
51216;SDS011;37283;49.760;8.648;2023-02-28T12:32:48;8.40;;;5.78;;
51216;SDS011;37283;49.760;8.648;2023-02-28T12:35:21;8.73;;;5.10;;
51216;SDS011;37283;49.760;8.648;2023-02-28T12:38:01;7.60;;;5.80;;
51216;SDS011;37283;49.760;8.648;2023-02-28T12:40:40;9.25;;;5.63;;
51216;SDS011;37283;49.760;8.648;2023-02-28T12:48:27;10.30;;;5.90;;
51216;SDS011;37283;49.760;8.648;2023-02-28T12:50:58;8.80;;;5.95;;
51216;SDS011;37283;49.760;8.648;2023-02-28T12:53:35;7.22;;;5.55;;
51216;SDS011;37283;49.760;8.648;2023-02-28T12:56:17;6.55;;;5.32;;
51216;SDS011;37283;49.760;8.648;2023-02-28T12:59:09;8.38;;;5.57;;
51216;SDS011;37283;49.760;8.648;2023-02-28T13:09:57;11.73;;;5.28;;
51216;SDS011;37283;49.760;8.648;2023-02-28T13:12:26;10.30;;;5.65;;
51216;SDS011;37283;49.760;8.648;2023-02-28T13:15:16;8.10;;;5.85;;
51216;SDS011;37283;49.760;8.648;2023-02-28T13:17:46;7.47;;;6.03;;
51216;SDS011;37283;49.760;8.648;2023-02-28T13:20:15;8.02;;;6.07;;
51216;SDS011;37283;49.760;8.648;2023-02-28T13:22:45;11.25;;;5.97;;
51216;SDS011;37283;49.760;8.648;2023-02-28T13:27:50;7.65;;;5.45;;
51216;SDS011;37283;49.760;8.648;2023-02-28T13:33:36;7.90;;;6.13;;
51216;SDS011;37283;49.760;8.648;2023-02-28T13:36:22;9.07;;;6.25;;
51216;SDS011;37283;49.760;8.648;2023-02-28T13:38:55;9.02;;;6.43;;
51216;SDS011;37283;49.760;8.648;2023-02-28T13:44:09;6.78;;;5.38;;
51216;SDS011;37283;49.760;8.648;2023-02-28T13:51:52;8.65;;;5.50;;
51216;SDS011;37283;49.760;8.648;2023-02-28T13:57:08;8.00;;;5.95;;
51216;SDS011;37283;49.760;8.648;2023-02-28T14:02:35;8.02;;;5.43;;
51216;SDS011;37283;49.760;8.648;2023-02-28T14:07:44;10.57;;;5.80;;
51216;SDS011;37283;49.760;8.648;2023-02-28T14:10:26;8.10;;;6.22;;
51216;SDS011;37283;49.760;8.648;2023-02-28T14:18:15;10.18;;;6.05;;
51216;SDS011;37283;49.760;8.648;2023-02-28T14:20:54;7.60;;;5.68;;
51216;SDS011;37283;49.760;8.648;2023-02-28T14:31:11;7.32;;;5.78;;
51216;SDS011;37283;49.760;8.648;2023-02-28T14:36:26;7.43;;;5.72;;
51216;SDS011;37283;49.760;8.648;2023-02-28T14:38:57;8.65;;;6.10;;
51216;SDS011;37283;49.760;8.648;2023-02-28T14:41:34;9.63;;;5.72;;
51216;SDS011;37283;49.760;8.648;2023-02-28T14:46:45;7.15;;;5.68;;
51216;SDS011;37283;49.760;8.648;2023-02-28T14:54:36;6.45;;;5.38;;
51216;SDS011;37283;49.760;8.648;2023-02-28T14:57:04;9.80;;;5.53;;
51216;SDS011;37283;49.760;8.648;2023-02-28T14:59:32;8.40;;;5.38;;
51216;SDS011;37283;49.760;8.648;2023-02-28T15:02:14;8.48;;;5.53;;
51216;SDS011;37283;49.760;8.648;2023-02-28T15:04:54;7.28;;;5.70;;
51216;SDS011;37283;49.760;8.648;2023-02-28T15:07:25;7.03;;;5.00;;
51216;SDS011;37283;49.760;8.648;2023-02-28T15:13:07;8.55;;;5.97;;
51216;SDS011;37283;49.760;8.648;2023-02-28T15:15:44;7.15;;;5.35;;
51216;SDS011;37283;49.760;8.648;2023-02-28T15:18:43;7.80;;;5.63;;
51216;SDS011;37283;49.760;8.648;2023-02-28T15:21:20;8.18;;;5.47;;
51216;SDS011;37283;49.760;8.648;2023-02-28T15:24:33;6.75;;;5.25;;
51216;SDS011;37283;49.760;8.648;2023-02-28T15:26:43;11.07;;;5.97;;
51216;SDS011;37283;49.760;8.648;2023-02-28T15:31:44;8.70;;;6.50;;
51216;SDS011;37283;49.760;8.648;2023-02-28T15:34:39;7.75;;;5.45;;
51216;SDS011;37283;49.760;8.648;2023-02-28T15:37:27;7.68;;;5.72;;
51216;SDS011;37283;49.760;8.648;2023-02-28T15:39:58;7.90;;;5.38;;
51216;SDS011;37283;49.760;8.648;2023-02-28T15:42:34;10.15;;;5.85;;
51216;SDS011;37283;49.760;8.648;2023-02-28T15:45:00;7.10;;;5.47;;
51216;SDS011;37283;49.760;8.648;2023-02-28T15:47:28;7.03;;;5.45;;
51216;SDS011;37283;49.760;8.648;2023-02-28T15:49:59;8.07;;;5.80;;
51216;SDS011;37283;49.760;8.648;2023-02-28T15:52:34;8.05;;;5.63;;
51216;SDS011;37283;49.760;8.648;2023-02-28T15:55:12;8.48;;;5.95;;
51216;SDS011;37283;49.760;8.648;2023-02-28T15:57:50;11.88;;;6.00;;
51216;SDS011;37283;49.760;8.648;2023-02-28T16:00:19;6.47;;;5.28;;
51216;SDS011;37283;49.760;8.648;2023-02-28T16:02:48;7.70;;;5.35;;
51216;SDS011;37283;49.760;8.648;2023-02-28T16:05:29;7.97;;;5.43;;
51216;SDS011;37283;49.760;8.648;2023-02-28T16:08:14;8.10;;;5.43;;
51216;SDS011;37283;49.760;8.648;2023-02-28T16:10:41;6.18;;;5.20;;
51216;SDS011;37283;49.760;8.648;2023-02-28T16:13:08;8.02;;;5.53;;
51216;SDS011;37283;49.760;8.648;2023-02-28T16:15:38;7.95;;;5.60;;
51216;SDS011;37283;49.760;8.648;2023-02-28T16:18:10;8.23;;;5.30;;
51216;SDS011;37283;49.760;8.648;2023-02-28T16:20:38;7.28;;;5.45;;
51216;SDS011;37283;49.760;8.648;2023-02-28T16:23:05;8.15;;;6.00;;
51216;SDS011;37283;49.760;8.648;2023-02-28T16:25:38;7.30;;;5.30;;
51216;SDS011;37283;49.760;8.648;2023-02-28T16:28:12;7.28;;;5.30;;
51216;SDS011;37283;49.760;8.648;2023-02-28T16:30:44;10.88;;;5.80;;
51216;SDS011;37283;49.760;8.648;2023-02-28T16:33:10;6.18;;;5.15;;
51216;SDS011;37283;49.760;8.648;2023-02-28T16:35:37;7.32;;;5.28;;
51216;SDS011;37283;49.760;8.648;2023-02-28T16:38:04;8.15;;;5.40;;
51216;SDS011;37283;49.760;8.648;2023-02-28T16:40:33;7.05;;;5.40;;
51216;SDS011;37283;49.760;8.648;2023-02-28T16:43:00;6.40;;;5.20;;
51216;SDS011;37283;49.760;8.648;2023-02-28T16:45:31;8.85;;;5.75;;
51216;SDS011;37283;49.760;8.648;2023-02-28T16:47:57;7.70;;;5.30;;
51216;SDS011;37283;49.760;8.648;2023-02-28T16:50:25;7.40;;;5.20;;
51216;SDS011;37283;49.760;8.648;2023-02-28T16:55:20;8.13;;;5.15;;
51216;SDS011;37283;49.760;8.648;2023-02-28T16:57:50;6.57;;;5.72;;
51216;SDS011;37283;49.760;8.648;2023-02-28T17:00:18;8.43;;;6.03;;
51216;SDS011;37283;49.760;8.648;2023-02-28T17:02:45;7.07;;;5.47;;
51216;SDS011;37283;49.760;8.648;2023-02-28T17:05:12;8.25;;;5.97;;
51216;SDS011;37283;49.760;8.648;2023-02-28T17:07:39;7.50;;;5.95;;
51216;SDS011;37283;49.760;8.648;2023-02-28T17:10:19;8.32;;;6.10;;
51216;SDS011;37283;49.760;8.648;2023-02-28T17:12:47;8.23;;;5.50;;
51216;SDS011;37283;49.760;8.648;2023-02-28T17:15:16;7.38;;;5.75;;
51216;SDS011;37283;49.760;8.648;2023-02-28T17:17:43;11.50;;;6.33;;
51216;SDS011;37283;49.760;8.648;2023-02-28T17:20:11;7.13;;;5.50;;
51216;SDS011;37283;49.760;8.648;2023-02-28T17:22:39;6.88;;;5.40;;
51216;SDS011;37283;49.760;8.648;2023-02-28T17:25:07;7.55;;;5.75;;
51216;SDS011;37283;49.760;8.648;2023-02-28T17:36:29;25.65;;;16.05;;
51216;SDS011;37283;49.760;8.648;2023-02-28T17:39:20;22.55;;;13.52;;
51216;SDS011;37283;49.760;8.648;2023-02-28T17:41:54;18.40;;;11.40;;
51216;SDS011;37283;49.760;8.648;2023-02-28T17:44:21;16.02;;;11.50;;
51216;SDS011;37283;49.760;8.648;2023-02-28T17:46:50;20.45;;;11.75;;
51216;SDS011;37283;49.760;8.648;2023-02-28T17:49:17;11.55;;;8.07;;
51216;SDS011;37283;49.760;8.648;2023-02-28T17:51:44;11.95;;;9.50;;
51216;SDS011;37283;49.760;8.648;2023-02-28T17:54:11;20.80;;;12.60;;
51216;SDS011;37283;49.760;8.648;2023-02-28T17:56:38;35.60;;;22.73;;
51216;SDS011;37283;49.760;8.648;2023-02-28T17:59:04;38.92;;;23.90;;
51216;SDS011;37283;49.760;8.648;2023-02-28T18:01:31;24.33;;;16.42;;